createdAt,value
2023-01-04T00:01:52.893Z,99502.69
2023-01-04T00:04:19.606Z,99500.88
2023-01-04T00:06:46.175Z,99479.34
2023-01-04T00:09:12.715Z,99497.44
2023-01-04T00:11:39.344Z,99504.34
2023-01-04T00:14:05.859Z,99507.75
2023-01-04T00:16:32.508Z,99504.34
2023-01-04T00:18:59.203Z,99509.53
2023-01-04T00:21:28.551Z,99507.75
2023-01-04T00:23:58.019Z,99516.41
2023-01-04T00:26:28.632Z,99508.56
2023-01-04T00:28:58.645Z,99505.19
2023-01-04T00:31:25.693Z,99495.84
2023-01-04T00:33:55.428Z,99485.25
2023-01-04T00:36:22.389Z,99487.84
2023-01-04T00:39:07.384Z,99486.09
2023-01-04T00:44:14.302Z,99480.13
2023-01-04T00:46:41.679Z,99483.56
2023-01-04T00:49:09.879Z,99474.91
2023-01-04T00:51:38.176Z,99467.97
2023-01-04T00:54:06.358Z,99476.72
2023-01-04T00:56:34.881Z,99474.91
2023-01-04T00:59:03.386Z,99482.66
2023-01-04T01:01:31.755Z,99486.97
2023-01-04T01:04:01.722Z,99494.84
2023-01-04T01:06:30.102Z,99506.09
2023-01-04T01:08:57.606Z,99504.38
2023-01-04T01:11:24.392Z,99502.66
2023-01-04T01:13:51.804Z,99506.09
2023-01-04T01:16:44.276Z,99480.97
2023-01-04T01:19:08.843Z,99474.13
2023-01-04T01:21:35.567Z,99462.88
2023-01-04T01:24:02.154Z,99465.50
2023-01-04T01:26:28.704Z,99469.88
2023-01-04T01:28:55.276Z,99480.31
2023-01-04T01:31:24.572Z,99488.03
2023-01-04T01:33:54.326Z,99491.44
2023-01-04T01:36:22.868Z,99486.28
2023-01-04T01:38:49.801Z,99481.97
2023-01-04T01:41:24.423Z,99494.13
2023-01-04T01:49:32.614Z,99467.28
2023-01-04T01:52:03.886Z,99449.97
2023-01-04T01:54:34.593Z,99427.53
2023-01-04T01:57:05.051Z,99417.97
2023-01-04T01:59:34.258Z,99397.22
2023-01-04T02:02:01.138Z,99443.94
2023-01-04T02:04:28.020Z,99451.78
2023-01-04T02:06:57.878Z,99440.66
2023-01-04T02:09:24.958Z,99425.84
2023-01-04T02:11:51.503Z,99424.22
2023-01-04T02:14:27.659Z,99438.88
2023-01-04T02:22:57.143Z,99475.34
2023-01-04T02:44:59.482Z,99454.41
2023-01-04T02:47:50.749Z,99456.19
2023-01-04T02:53:06.311Z,99469.22
2023-01-04T03:04:08.484Z,99471.81
2023-01-04T03:06:47.581Z,99468.31
2023-01-04T03:09:23.036Z,99464.03
2023-01-04T03:12:16.552Z,99457.94
2023-01-04T03:14:51.216Z,99468.31
2023-01-04T03:17:21.840Z,99464.84
2023-01-04T03:19:52.109Z,99462.22
2023-01-04T03:25:22.803Z,99466.63
2023-01-04T03:28:12.231Z,99471.88
2023-01-04T03:31:08.018Z,99449.44
2023-01-04T03:33:54.849Z,99472.78
2023-01-04T03:39:30.857Z,99470.16
2023-01-04T03:42:28.343Z,99464.97
2023-01-04T03:45:52.866Z,99459.88
2023-01-04T03:53:53.035Z,99461.28
2023-01-04T03:56:22.748Z,99461.38
2023-01-04T03:58:51.101Z,99466.66
2023-01-04T04:01:20.286Z,99462.38
2023-01-04T04:04:07.440Z,99469.25
2023-01-04T04:06:54.095Z,99465.00
2023-01-04T04:09:20.893Z,99469.28
2023-01-04T04:11:47.742Z,99468.50
2023-01-04T04:14:14.410Z,99467.53
2023-01-04T04:16:41.722Z,99458.19
2023-01-04T04:19:09.150Z,99468.47
2023-01-04T04:21:36.194Z,99474.47
2023-01-04T04:24:03.125Z,99474.44
2023-01-04T04:26:29.731Z,99471.88
2023-01-04T04:28:56.293Z,99456.28
2023-01-04T04:31:22.937Z,99470.91
2023-01-04T04:33:49.481Z,99470.91
2023-01-04T04:36:16.188Z,99476.13
2023-01-04T04:38:42.829Z,99475.22
2023-01-04T04:41:33.051Z,99451.03
2023-01-04T04:43:59.984Z,99445.00
2023-01-04T04:46:26.995Z,99458.84
2023-01-04T04:48:53.692Z,99471.81
2023-01-04T04:51:20.464Z,99477.78
2023-01-04T04:53:47.278Z,99482.13
2023-01-04T04:56:13.946Z,99484.72
2023-01-04T04:58:41.334Z,99493.34
2023-01-04T05:01:08.521Z,99488.16
2023-01-04T05:03:35.403Z,99487.25
2023-01-04T05:06:02.769Z,99484.66
2023-01-04T05:08:29.907Z,99501.09
2023-01-04T05:10:56.488Z,99504.53
2023-01-04T05:13:23.104Z,99489.84
2023-01-04T05:15:52.856Z,99491.56
2023-01-04T05:18:21.716Z,99484.66
2023-01-04T05:20:49.157Z,99495.00
2023-01-04T05:23:18.026Z,99496.75
2023-01-04T05:25:44.711Z,99495.00
2023-01-04T05:28:11.704Z,99496.78
2023-01-04T05:30:55.759Z,99501.03
2023-01-04T05:36:02.825Z,99495.84
2023-01-04T05:38:30.415Z,99499.31
2023-01-04T05:40:57.592Z,99494.13
2023-01-04T05:43:24.794Z,99492.34
2023-01-04T05:45:54.381Z,99495.84
2023-01-04T05:48:22.293Z,99484.59
2023-01-04T05:50:50.414Z,99498.47
2023-01-04T05:53:18.420Z,99499.38
2023-01-04T05:55:45.993Z,99502.84
2023-01-04T05:58:12.595Z,99510.78
2023-01-04T06:00:39.785Z,99513.28
2023-01-04T06:03:06.916Z,99509.81
2023-01-04T06:05:33.791Z,99515.94
2023-01-04T06:08:00.934Z,99525.41
2023-01-04T06:10:27.630Z,99520.25
2023-01-04T06:12:54.208Z,99516.75
2023-01-04T06:15:20.835Z,99516.00
2023-01-04T06:17:47.481Z,99512.53
2023-01-04T06:20:14.354Z,99504.84
2023-01-04T06:22:41.515Z,99510.97
2023-01-04T06:25:09.604Z,99505.78
2023-01-04T06:27:36.623Z,99502.38
2023-01-04T06:30:04.485Z,99503.25
2023-01-04T06:32:31.316Z,99495.50
2023-01-04T06:34:58.088Z,99505.00
2023-01-04T06:37:24.710Z,99492.03
2023-01-04T06:39:51.534Z,99494.66
2023-01-04T06:42:38.053Z,99503.34
2023-01-04T06:45:05.349Z,99498.16
2023-01-04T06:47:31.922Z,99498.16
2023-01-04T06:49:58.527Z,99507.72
2023-01-04T06:52:25.237Z,99512.94
2023-01-04T06:54:51.911Z,99514.75
2023-01-04T06:57:18.688Z,99520.00
2023-01-04T06:59:45.376Z,99519.16
2023-01-04T07:02:15.322Z,99515.75
2023-01-04T07:04:42.949Z,99503.75
2023-01-04T07:07:10.452Z,99511.50
2023-01-04T07:09:37.148Z,99508.94
2023-01-04T07:12:04.007Z,99509.84
2023-01-04T07:14:30.665Z,99506.44
2023-01-04T07:16:57.331Z,99524.59
2023-01-04T07:19:23.932Z,99526.38
2023-01-04T07:21:50.547Z,99529.03
2023-01-04T07:24:17.154Z,99531.66
2023-01-04T07:26:43.684Z,99531.69
2023-01-04T07:29:14.459Z,99542.94
2023-01-04T07:31:41.899Z,99535.22
2023-01-04T07:34:08.469Z,99535.22
2023-01-04T07:36:35.058Z,99525.69
2023-01-04T07:39:02.325Z,99528.31
2023-01-04T07:41:28.912Z,99536.09
2023-01-04T07:43:55.707Z,99535.25
2023-01-04T07:46:22.426Z,99545.63
2023-01-04T07:48:49.065Z,99543.09
2023-01-04T07:51:16.089Z,99545.69
2023-01-04T07:53:43.135Z,99551.72
2023-01-04T07:56:13.772Z,99556.91
2023-01-04T07:58:45.006Z,99546.56
2023-01-04T08:01:15.360Z,99556.06
2023-01-04T08:03:42.091Z,99563.03
2023-01-04T08:06:11.429Z,99557.81
2023-01-04T08:08:38.489Z,99564.72
2023-01-04T08:11:08.374Z,99562.97
2023-01-04T08:13:35.161Z,99560.38
2023-01-04T08:16:01.858Z,99562.06
2023-01-04T08:18:28.578Z,99561.19
2023-01-04T08:21:10.769Z,99566.47
2023-01-04T08:23:37.524Z,99564.72
2023-01-04T08:26:11.112Z,99564.72
2023-01-04T08:28:37.719Z,99567.28
2023-01-04T08:31:07.962Z,99578.56
2023-01-04T08:33:36.590Z,99583.78
2023-01-04T08:36:08.542Z,99579.50
2023-01-04T08:41:56.045Z,99578.63
2023-01-04T08:44:08.444Z,99585.56
2023-01-04T08:46:35.063Z,99588.94
2023-01-04T08:49:01.613Z,99587.22
2023-01-04T08:51:28.184Z,99591.50
2023-01-04T08:53:54.787Z,99595.81
2023-01-04T08:56:21.327Z,99595.00
2023-01-04T08:58:47.877Z,99597.59
2023-01-04T09:01:14.495Z,99594.13
2023-01-04T09:03:42.092Z,99596.72
2023-01-04T09:06:11.543Z,99593.31
2023-01-04T09:08:40.138Z,99592.44
2023-01-04T09:11:08.581Z,99595.91
2023-01-04T09:13:36.540Z,99596.72
2023-01-04T09:16:04.950Z,99595.00
2023-01-04T09:18:32.905Z,99600.06
2023-01-04T09:21:05.125Z,99595.69
2023-01-04T09:23:31.765Z,99595.56
2023-01-04T09:25:58.370Z,99603.25
2023-01-04T09:28:24.914Z,99595.34
2023-01-04T09:30:51.492Z,99603.84
2023-01-04T09:33:18.091Z,99590.06
2023-01-04T09:35:44.630Z,99602.16
2023-01-04T09:38:11.181Z,99588.38
2023-01-04T09:40:54.843Z,99588.44
2023-01-04T09:43:23.649Z,99590.06
2023-01-04T09:45:54.344Z,99596.91
2023-01-04T09:48:27.267Z,99603.78
2023-01-04T09:50:59.656Z,99601.06
2023-01-04T09:56:14.518Z,99599.84
2023-01-04T09:58:42.622Z,99609.97
2023-01-04T10:01:31.334Z,99633.00
2023-01-04T10:06:37.140Z,99634.75
2023-01-04T10:09:10.612Z,99652.84
2023-01-04T10:14:44.963Z,99644.84
2023-01-04T10:26:34.898Z,99669.81
2023-01-04T10:32:12.569Z,99677.06
2023-01-04T10:34:42.791Z,99671.03
2023-01-04T10:37:21.748Z,99666.81
2023-01-04T10:39:55.207Z,99671.19
2023-01-04T10:42:33.570Z,99672.16
2023-01-04T10:48:06.151Z,99678.53
2023-01-04T10:50:44.703Z,99669.94
2023-01-04T10:53:21.826Z,99665.47
2023-01-04T10:56:23.645Z,99682.78
2023-01-04T11:02:07.092Z,99692.38
2023-01-04T11:04:49.236Z,99675.13
2023-01-04T11:07:22.080Z,99678.66
2023-01-04T11:09:57.564Z,99681.41
2023-01-04T11:12:24.196Z,99679.81
2023-01-04T11:14:51.634Z,99687.66
2023-01-04T11:17:21.396Z,99684.28
2023-01-04T11:19:48.327Z,99680.91
2023-01-04T11:22:24.741Z,99685.31
2023-01-04T11:25:33.120Z,99688.09
2023-01-04T11:27:54.372Z,99695.09
2023-01-04T11:30:24.892Z,99691.66
2023-01-04T11:33:03.698Z,99695.25
2023-01-04T11:35:42.861Z,99691.06
2023-01-04T11:38:13.377Z,99686.78
2023-01-04T11:40:41.312Z,99683.31
2023-01-04T11:43:18.507Z,99685.06
2023-01-04T11:45:58.234Z,99677.38
2023-01-04T11:48:42.593Z,99687.78
2023-01-04T11:51:18.924Z,99686.13
2023-01-04T11:53:46.216Z,99681.81
2023-01-04T11:59:22.645Z,99673.34
2023-01-04T12:02:10.159Z,99671.50
2023-01-04T12:04:36.819Z,99665.38
2023-01-04T12:07:11.378Z,99661.81
2023-01-04T12:09:37.917Z,99652.16
2023-01-04T12:12:07.734Z,99649.50
2023-01-04T12:14:40.762Z,99654.59
2023-01-04T12:17:31.840Z,99647.59
2023-01-04T12:20:03.858Z,99643.91
2023-01-04T12:25:24.056Z,99644.53
2023-01-04T12:27:52.055Z,99640.16
2023-01-04T12:30:42.043Z,99646.31
2023-01-04T12:39:03.007Z,99649.00
2023-01-04T12:53:10.750Z,99648.00
2023-01-04T13:01:10.691Z,99643.53
2023-01-04T13:03:48.249Z,99658.22
2023-01-04T13:06:20.728Z,99649.53
2023-01-04T13:08:49.514Z,99667.75
2023-01-04T13:11:36.155Z,99663.50
2023-01-04T13:14:12.220Z,99679.91
2023-01-04T13:17:16.332Z,99676.53
2023-01-04T13:19:44.047Z,99680.03
2023-01-04T13:22:34.071Z,99682.63
2023-01-04T13:25:02.980Z,99674.81
2023-01-04T13:27:29.615Z,99670.53
2023-01-04T13:29:56.199Z,99684.34
2023-01-04T13:32:28.454Z,99666.25
2023-01-04T13:37:35.633Z,99670.66
2023-01-04T13:42:42.249Z,99676.22
2023-01-04T13:47:57.356Z,99677.50
2023-01-04T13:53:06.752Z,99679.25
2023-01-04T13:55:37.200Z,99674.88
2023-01-04T13:58:07.210Z,99673.97
2023-01-04T14:00:42.449Z,99671.63
2023-01-04T14:06:15.271Z,99656.94
2023-01-04T14:13:59.308Z,99669.47
2023-01-04T14:16:25.974Z,99656.84
2023-01-04T14:18:52.668Z,99656.09
2023-01-04T14:21:19.392Z,99655.28
2023-01-04T14:23:46.056Z,99665.72
2023-01-04T14:26:33.316Z,99674.47
2023-01-04T14:29:21.493Z,99653.78
2023-01-04T14:31:50.424Z,99664.09
2023-01-04T14:34:17.006Z,99672.81
2023-01-04T14:36:44.076Z,99678.06
2023-01-04T14:39:18.671Z,99684.09
2023-01-04T14:41:55.771Z,99693.69
2023-01-04T14:44:25.643Z,99703.22
2023-01-04T14:46:54.172Z,99698.03
2023-01-04T14:49:22.339Z,99695.50
2023-01-04T14:54:27.205Z,99690.34
2023-01-04T14:56:55.247Z,99691.19
2023-01-04T14:59:24.141Z,99690.38
2023-01-04T15:01:52.222Z,99688.66
2023-01-04T15:04:18.988Z,99702.44
2023-01-04T15:06:49.481Z,99693.00
2023-01-04T15:09:16.247Z,99699.94
2023-01-04T15:11:42.893Z,99696.50
2023-01-04T15:14:09.780Z,99713.75
2023-01-04T15:16:36.388Z,99716.34
2023-01-04T15:19:03.114Z,99714.63
2023-01-04T15:21:31.847Z,99722.41
2023-01-04T15:23:59.600Z,99722.41
2023-01-04T15:26:26.186Z,99723.31
2023-01-04T15:28:52.733Z,99734.53
2023-01-04T15:31:24.076Z,99731.03
2023-01-04T15:33:54.831Z,99738.88
2023-01-04T15:36:23.998Z,99739.72
2023-01-04T15:38:54.303Z,99740.59
2023-01-04T15:41:40.830Z,99731.16
2023-01-04T15:44:09.802Z,99748.47
2023-01-04T15:46:36.464Z,99761.44
2023-01-04T15:49:03.124Z,99761.44
2023-01-04T15:51:29.773Z,99754.56
2023-01-04T15:53:56.725Z,99735.59
2023-01-04T15:56:23.400Z,99763.31
2023-01-04T15:58:55.050Z,99756.38
2023-01-04T16:01:22.459Z,99776.28
2023-01-04T16:03:53.463Z,99775.47
2023-01-04T16:06:20.580Z,99773.78
2023-01-04T16:08:48.848Z,99795.44
2023-01-04T16:11:19.542Z,99802.38
2023-01-04T16:13:48.283Z,99814.50
2023-01-04T16:16:15.716Z,99820.56
2023-01-04T16:18:47.621Z,99819.75
2023-01-04T16:21:15.675Z,99812.81
2023-01-04T16:23:42.280Z,99805.06
2023-01-04T16:26:11.532Z,99817.19
2023-01-04T16:28:38.586Z,99821.56
2023-01-04T16:31:06.407Z,99825.91
2023-01-04T16:33:33.702Z,99838.94
2023-01-04T16:36:02.857Z,99840.69
2023-01-04T16:38:29.501Z,99846.78
2023-01-04T16:40:57.587Z,99841.66
2023-01-04T16:43:24.124Z,99849.41
2023-01-04T16:45:50.820Z,99856.34
2023-01-04T16:48:18.773Z,99852.94
2023-01-04T16:50:45.751Z,99864.22
2023-01-04T16:53:12.305Z,99868.56
2023-01-04T16:55:38.847Z,99872.91
2023-01-04T16:58:05.441Z,99872.94
2023-01-04T17:00:32.040Z,99872.94
2023-01-04T17:02:58.786Z,99868.66
2023-01-04T17:05:25.384Z,99872.13
2023-01-04T17:07:52.734Z,99875.56
2023-01-04T17:10:22.850Z,99861.78
2023-01-04T17:12:53.927Z,99867.84
2023-01-04T17:15:42.488Z,99873.91
2023-01-04T17:18:07.384Z,99879.09
2023-01-04T17:20:33.967Z,99894.66
2023-01-04T17:23:00.605Z,99885.19
2023-01-04T17:25:27.203Z,99883.47
2023-01-04T17:27:53.823Z,99881.72
2023-01-04T17:30:20.424Z,99884.38
2023-01-04T17:32:47.081Z,99887.84
2023-01-04T17:35:13.779Z,99883.56
2023-01-04T17:37:40.315Z,99892.19
2023-01-04T17:40:07.362Z,99882.69
2023-01-04T17:42:34.018Z,99880.16
2023-01-04T17:45:00.558Z,99889.63
2023-01-04T17:47:27.776Z,99883.59
2023-01-04T17:49:54.337Z,99890.53
2023-01-04T17:52:27.402Z,99877.56
2023-01-04T17:54:57.445Z,99883.63
2023-01-04T17:57:23.961Z,99886.19
2023-01-04T17:59:50.631Z,99881.91
2023-01-04T18:02:17.423Z,99888.81
2023-01-04T18:04:44.009Z,99894.84
2023-01-04T18:09:42.163Z,99891.41
2023-01-04T18:12:08.832Z,99902.63
2023-01-04T18:14:35.379Z,99890.50
2023-01-04T18:17:02.030Z,99892.25
2023-01-04T18:19:30.262Z,99897.38
2023-01-04T18:21:57.901Z,99908.63
2023-01-04T18:24:41.672Z,99906.03
2023-01-04T18:27:26.856Z,99899.97
2023-01-04T18:29:55.449Z,99899.97
2023-01-04T18:32:23.563Z,99922.44
2023-01-04T18:34:50.343Z,99921.59
2023-01-04T18:37:18.565Z,99933.69
2023-01-04T18:39:45.720Z,99925.06
2023-01-04T18:42:12.315Z,99930.22
2023-01-04T18:44:45.595Z,99921.63
2023-01-04T18:47:15.836Z,99926.81
2023-01-04T18:49:42.433Z,99919.03
2023-01-04T18:52:09.042Z,99924.22
2023-01-04T18:54:35.612Z,99922.50
2023-01-04T18:57:02.171Z,99926.81
2023-01-04T18:59:29.788Z,99920.75
2023-01-04T19:02:01.237Z,99917.34
2023-01-04T19:04:30.148Z,99931.16
2023-01-04T19:06:56.733Z,99935.44
2023-01-04T19:09:23.322Z,99940.63
2023-01-04T19:11:50.218Z,99943.22
2023-01-04T19:14:17.147Z,99946.69
2023-01-04T19:16:43.807Z,99950.16
2023-01-04T19:19:11.133Z,99948.44
2023-01-04T19:21:37.908Z,99951.03
2023-01-04T19:24:04.714Z,99944.13
2023-01-04T19:26:31.281Z,99957.06
2023-01-04T19:28:57.831Z,99957.91
2023-01-04T19:31:24.412Z,99945.84
2023-01-04T19:33:51.024Z,99942.41
2023-01-04T19:36:18.987Z,99955.34
2023-01-04T19:38:46.178Z,99970.00
2023-01-04T19:41:20.958Z,99978.63
2023-01-04T19:43:47.857Z,99979.50
2023-01-04T19:46:14.668Z,99986.41
2023-01-04T19:48:42.059Z,99978.66
2023-01-04T19:51:12.140Z,99971.75
2023-01-04T19:53:39.718Z,99974.34
2023-01-04T19:56:07.167Z,99975.19
2023-01-04T19:58:33.958Z,99982.09
2023-01-04T20:01:00.724Z,99976.06
2023-01-04T20:03:27.667Z,99975.22
2023-01-04T20:05:55.218Z,99976.91
2023-01-04T20:08:22.393Z,99982.13
2023-01-04T20:10:58.125Z,99974.38
2023-01-04T20:13:24.913Z,99969.19
2023-01-04T20:15:51.761Z,99976.09
2023-01-04T20:18:19.077Z,99977.78
2023-01-04T20:20:46.521Z,99976.91
2023-01-04T20:23:14.412Z,99995.88
2023-01-04T20:25:43.031Z,99981.25
2023-01-04T20:28:09.994Z,100006.22
2023-01-04T20:30:37.216Z,99995.88
2023-01-04T20:33:04.533Z,100001.06
2023-01-04T20:35:31.484Z,100004.50
2023-01-04T20:37:58.650Z,100005.38
2023-01-04T20:40:26.438Z,99999.34
2023-01-04T20:43:13.731Z,100007.97
2023-01-04T20:45:46.089Z,100017.44
2023-01-04T20:48:14.431Z,100018.28
2023-01-04T20:50:41.808Z,100017.44
2023-01-04T20:53:08.629Z,100019.16
2023-01-04T20:55:41.177Z,100035.53
2023-01-04T20:58:09.836Z,100036.38
2023-01-04T21:00:37.284Z,100036.38
2023-01-04T21:03:06.200Z,100051.03
2023-01-04T21:05:43.523Z,100056.19
2023-01-04T21:08:11.986Z,100059.66
2023-01-04T21:10:41.734Z,100060.50
2023-01-04T21:13:09.644Z,100054.50
2023-01-04T21:15:37.398Z,100064.84
2023-01-04T21:18:05.799Z,100070.88
2023-01-04T21:20:33.389Z,100064.84
2023-01-04T21:23:00.028Z,100064.84
2023-01-04T21:25:26.639Z,100069.13
2023-01-04T21:27:53.260Z,100070.00
2023-01-04T21:30:19.889Z,100076.03
2023-01-04T21:32:46.546Z,100083.78
2023-01-04T21:35:13.120Z,100099.28
2023-01-04T21:37:39.849Z,100105.31
2023-01-04T21:40:06.858Z,100111.34
2023-01-04T21:42:33.476Z,100113.06
2023-01-04T21:45:00.148Z,100111.34
2023-01-04T21:47:26.894Z,100118.22
2023-01-04T21:49:53.452Z,100117.38
2023-01-04T21:52:22.271Z,100124.28
2023-01-04T21:54:48.922Z,100120.84
2023-01-04T21:57:15.607Z,100126.84
2023-01-04T21:59:42.212Z,100128.56
2023-01-04T22:02:17.865Z,100130.28
2023-01-04T22:04:45.716Z,100140.63
2023-01-04T22:07:12.578Z,100133.75
2023-01-04T22:09:39.339Z,100134.59
2023-01-04T22:12:06.435Z,100128.56
2023-01-04T22:14:33.674Z,100130.28
2023-01-04T22:17:00.325Z,100138.91
2023-01-04T22:19:27.034Z,100140.63
2023-01-04T22:21:53.596Z,100145.81
2023-01-04T22:24:20.599Z,100149.25
2023-01-04T22:26:49.265Z,100151.84
2023-01-04T22:29:15.923Z,100160.44
2023-01-04T22:31:42.892Z,100154.41
2023-01-04T22:34:09.538Z,100153.53
2023-01-04T22:36:36.112Z,100156.97
2023-01-04T22:39:02.723Z,100160.44
2023-01-04T22:41:29.352Z,100152.66
2023-01-04T22:46:35.069Z,100160.41
2023-01-04T22:49:02.080Z,100157.81
2023-01-04T22:51:29.829Z,100164.72
2023-01-04T22:53:59.208Z,100155.28
2023-01-04T22:56:26.383Z,100161.31
2023-01-04T22:58:55.527Z,100170.81
2023-01-04T23:01:25.695Z,100172.53
2023-01-04T23:03:52.461Z,100175.09
2023-01-04T23:06:19.325Z,100182.91
2023-01-04T23:08:45.883Z,100178.59
2023-01-04T23:11:15.536Z,100180.34
2023-01-04T23:13:42.596Z,100175.19
2023-01-04T23:16:13.366Z,100176.06
2023-01-04T23:18:40.486Z,100182.09
2023-01-04T23:21:08.468Z,100189.88
2023-01-04T23:23:35.673Z,100185.56
2023-01-04T23:26:06.655Z,100183.84
2023-01-04T23:28:36.072Z,100191.59
2023-01-04T23:31:05.336Z,100183.81
2023-01-04T23:33:35.869Z,100186.44
2023-01-04T23:36:09.766Z,100191.59
2023-01-04T23:38:37.061Z,100192.44
2023-01-04T23:41:03.856Z,100200.19
2023-01-04T23:43:30.432Z,100209.66
2023-01-04T23:45:57.478Z,100229.50
2023-01-04T23:48:24.292Z,100227.78
2023-01-04T23:50:56.758Z,100229.53
2023-01-04T23:53:24.463Z,100231.25
2023-01-04T23:56:02.416Z,100228.66
2023-01-04T23:58:31.447Z,100226.97
